Campanya Meteocatpedra
Centenari de l'SMC: 100 anys mirant el cel

Dades de l'estació automàtica Baldomar

?
?

Resum diari

22:30 TU
Dades diàries de l'estació meteorològica
Temperatura mitjana 16.8 °C
Temperatura màxima 24.9 °C 15:28 TU
Temperatura mínima 9.7 °C 5:48 TU
Humitat relativa mitjana 65%
Precipitació acumulada 0.0 mm
Ratxa màxima del vent (2 m) 31.7 km/h - 87º 17:21 TU
Irradiació solar global 20.5 MJ/m2

El tram horari està expressat en Temps Universal (TU). Cal sumar una hora en horari d'hivern i dues en horari d'estiu per passar a l'hora oficial.

Baldomar

Metadades estació meteorològica
Municipi Artesa de Segre
Comarca Noguera
Altitud 366 m
Data alta 24.10.2006
Estat actual Operativa
Dades de període
Període
TU
TM
°C
TX
°C
TN
°C
HRM
%
PPT
mm
VVM (2 m)
km/h
DVM (2 m)
graus
VVX (2 m)
km/h
RS
W/m2
00:00 - 00:30 12.2 12.7 11.9 88 0.0 3.2 110 6.5 0
00:30 - 01:00 11.9 12.6 11.5 89 0.0 1.4 335 3.6 0
01:00 - 01:30 11.8 12.0 11.4 90 0.0 0.7 328 2.9 0
01:30 - 02:00 11.7 11.9 11.1 90 0.0 2.5 65 4.7 0
02:00 - 02:30 10.8 11.0 10.6 94 0.0 1.4 39 4.7 0
02:30 - 03:00 11.1 11.4 10.9 92 0.0 1.4 116 3.6 0
03:00 - 03:30 11.0 11.5 10.6 95 0.0 1.4 35 3.2 0
03:30 - 04:00 10.9 11.5 10.5 95 0.0 1.8 312 4.3 0
04:00 - 04:30 10.8 11.0 10.6 96 0.0 1.1 184 4.0 0
04:30 - 05:00 10.7 10.9 10.6 97 0.0 1.1 233 3.2 0
05:00 - 05:30 10.5 10.8 10.2 98 0.0 0.7 60 2.9 0
05:30 - 06:00 9.9 10.3 9.7 98 0.0 0.4 17 2.5 5
06:00 - 06:30 9.9 10.0 9.8 98 0.0 1.1 107 3.2 27
06:30 - 07:00 11.4 12.5 10.0 93 0.0 0.7 175 3.2 168
07:00 - 07:30 13.0 13.6 12.3 86 0.0 1.8 190 4.3 297
07:30 - 08:00 13.9 14.2 13.5 83 0.0 3.2 168 6.8 259
08:00 - 08:30 14.9 15.4 14.1 79 0.0 4.0 145 10.1 402
08:30 - 09:00 16.0 16.9 15.1 72 0.0 3.6 191 10.8 514
09:00 - 09:30 17.3 17.8 16.5 66 0.0 4.0 198 15.1 619
09:30 - 10:00 18.3 19.0 17.6 62 0.0 3.6 236 13.0 695
10:00 - 10:30 19.5 20.3 19.0 57 0.0 6.1 231 13.7 761
10:30 - 11:00 20.0 20.4 19.7 55 0.0 6.8 217 15.8 748
11:00 - 11:30 20.5 21.1 20.1 54 0.0 8.6 225 19.8 768
11:30 - 12:00 21.4 21.8 21.0 50 0.0 11.2 207 20.2 786
12:00 - 12:30 22.1 22.7 21.5 48 0.0 9.0 206 20.2 788
12:30 - 13:00 23.0 23.4 22.5 45 0.0 10.1 204 20.5 776
13:00 - 13:30 23.7 24.2 23.1 42 0.0 9.0 197 20.2 730
13:30 - 14:00 23.9 24.4 23.4 40 0.0 12.6 205 26.6 664
14:00 - 14:30 23.9 24.4 23.6 38 0.0 14.0 209 27.0 569
14:30 - 15:00 24.3 24.6 24.1 36 0.0 11.9 217 21.6 578
15:00 - 15:30 24.5 24.9 24.2 33 0.0 11.2 222 24.1 489
15:30 - 16:00 24.2 24.8 23.8 31 0.0 10.4 236 23.8 362
16:00 - 16:30 23.3 23.7 22.7 30 0.0 11.5 223 24.1 218
16:30 - 17:00 22.6 22.9 21.5 31 0.0 11.5 203 27.4 182
17:00 - 17:30 20.1 21.2 19.4 45 0.0 16.2 115 31.7 38
17:30 - 18:00 19.3 20.0 18.8 47 0.0 11.5 107 23.8 7
18:00 - 18:30 18.3 18.8 17.8 53 0.0 10.1 103 16.9 0
18:30 - 19:00 17.5 17.8 17.2 58 0.0 10.4 113 17.6 0
19:00 - 19:30 17.2 17.3 17.1 57 0.0 7.9 74 18.4 0
19:30 - 20:00 17.6 18.0 17.1 52 0.0 7.9 48 14.8 0
20:00 - 20:30 17.0 17.1 16.9 55 0.0 6.1 63 12.6 0
20:30 - 21:00 16.7 16.9 16.5 55 0.0 6.5 71 11.9 0
21:00 - 21:30 16.8 17.2 16.5 52 0.0 6.1 41 13.3 0
21:30 - 22:00 16.8 17.0 16.6 52 0.0 5.4 48 14.8 0
22:00 - 22:30 16.5 16.8 16.0 53 0.0 4.0 56 10.8 0
22:30 - 23:00 15.4 15.9 15.1 60 0.0 6.5 103 11.2 0
23:00 - 23:30 (s/d) (s/d) (s/d) (s/d) (s/d) (s/d) (s/d) (s/d) (s/d)

Les dades en taronja només han passat un control de qualitat automàtic. Resta pendent la seva validació definitiva.